createdAt,value
2019-02-23T00:01:00.954Z,1.92
2019-02-23T00:03:27.568Z,1.89
2019-02-23T00:05:54.162Z,1.83
2019-02-23T00:08:20.884Z,1.79
2019-02-23T00:10:47.477Z,1.74
2019-02-23T00:13:14.076Z,1.70
2019-02-23T00:15:40.693Z,1.69
2019-02-23T00:18:07.348Z,1.64
2019-02-23T00:20:34.038Z,1.60
2019-02-23T00:23:00.808Z,1.56
2019-02-23T00:25:27.412Z,1.52
2019-02-23T00:27:54.042Z,1.47
2019-02-23T00:30:20.645Z,1.44
2019-02-23T00:32:47.243Z,1.40
2019-02-23T00:35:13.892Z,1.35
2019-02-23T00:37:40.579Z,1.31
2019-02-23T00:40:07.193Z,1.30
2019-02-23T00:42:33.778Z,1.26
2019-02-23T00:45:00.385Z,1.21
2019-02-23T00:47:26.981Z,1.15
2019-02-23T00:49:53.583Z,1.12
2019-02-23T00:52:20.205Z,1.07
2019-02-23T00:54:46.805Z,1.04
2019-02-23T00:57:13.414Z,0.99
2019-02-23T00:59:40.066Z,0.97
2019-02-23T01:02:06.731Z,0.92
2019-02-23T01:04:33.422Z,0.87
2019-02-23T01:07:00.053Z,0.82
2019-02-23T01:09:26.642Z,0.76
2019-02-23T01:11:53.603Z,0.72
2019-02-23T01:14:20.205Z,0.66
2019-02-23T01:16:46.819Z,0.63
2019-02-23T01:19:13.427Z,0.60
2019-02-23T01:21:40.034Z,0.55
2019-02-23T01:24:06.636Z,0.51
2019-02-23T01:26:33.239Z,0.50
2019-02-23T01:28:59.840Z,0.47
2019-02-23T01:31:26.451Z,0.43
2019-02-23T01:33:53.081Z,0.39
2019-02-23T01:36:19.666Z,0.34
2019-02-23T01:38:46.275Z,0.30
2019-02-23T01:41:12.887Z,0.24
2019-02-23T01:43:39.573Z,0.22
2019-02-23T01:46:06.185Z,0.19
2019-02-23T01:48:32.792Z,0.15
2019-02-23T01:50:59.376Z,0.11
2019-02-23T01:53:25.957Z,0.07
2019-02-23T01:55:52.574Z,0.02
2019-02-23T01:58:19.170Z,-0.01
2019-02-23T02:00:45.750Z,-0.05
2019-02-23T02:03:12.337Z,-0.10
2019-02-23T02:05:38.932Z,-0.13
2019-02-23T02:08:05.532Z,-0.17
2019-02-23T02:10:32.140Z,-0.22
2019-02-23T02:12:58.844Z,-0.25
2019-02-23T02:15:25.420Z,-0.28
2019-02-23T02:17:52.014Z,-0.33
2019-02-23T02:20:18.612Z,-0.36
2019-02-23T02:22:45.202Z,-0.42
2019-02-23T02:25:11.814Z,-0.47
2019-02-23T02:27:38.417Z,-0.51
2019-02-23T02:30:05.173Z,-0.52
2019-02-23T02:32:31.774Z,-0.57
2019-02-23T02:34:58.378Z,-0.60
2019-02-23T02:37:24.960Z,-0.62
2019-02-23T02:39:51.557Z,-0.65
2019-02-23T02:42:18.162Z,-0.67
2019-02-23T02:44:44.786Z,-0.69
2019-02-23T02:47:11.380Z,-0.72
2019-02-23T02:49:38.063Z,-0.70
2019-02-23T02:52:04.742Z,-0.70
2019-02-23T02:54:31.467Z,-0.72
2019-02-23T02:56:58.188Z,-0.73
2019-02-23T02:59:24.786Z,-0.74
2019-02-23T03:01:51.396Z,-0.76
2019-02-23T03:04:18.005Z,-0.82
2019-02-23T03:06:44.606Z,-0.87
2019-02-23T03:09:11.715Z,-0.92
2019-02-23T03:11:38.309Z,-0.97
2019-02-23T03:14:04.896Z,-0.99
2019-02-23T03:16:31.592Z,-1.04
2019-02-23T03:18:58.222Z,-1.07
2019-02-23T03:21:24.813Z,-1.08
2019-02-23T03:23:51.415Z,-1.06
2019-02-23T03:26:18.023Z,-1.03
2019-02-23T03:28:44.616Z,-1.03
2019-02-23T03:31:11.220Z,-1.05
2019-02-23T03:33:37.821Z,-1.06
2019-02-23T03:36:04.512Z,-1.05
2019-02-23T03:38:31.135Z,-1.05
2019-02-23T03:40:57.737Z,-1.08
2019-02-23T03:43:24.342Z,-1.15
2019-02-23T03:45:50.939Z,-1.21
2019-02-23T03:48:17.533Z,-1.25
2019-02-23T03:50:49.167Z,-1.26
2019-02-23T03:53:12.628Z,-1.26
2019-02-23T03:55:39.244Z,-1.27
2019-02-23T03:58:05.840Z,-1.31
2019-02-23T04:00:32.535Z,-1.33
2019-02-23T04:02:59.132Z,-1.36
2019-02-23T04:05:25.833Z,-1.40
2019-02-23T04:07:52.433Z,-1.44
2019-02-23T04:10:19.029Z,-1.47
2019-02-23T04:12:45.727Z,-1.49
2019-02-23T04:15:12.425Z,-1.51
2019-02-23T04:17:39.004Z,-1.54
2019-02-23T04:20:05.624Z,-1.57
2019-02-23T04:22:32.231Z,-1.62
2019-02-23T04:24:58.922Z,-1.68
2019-02-23T04:27:25.507Z,-1.73
2019-02-23T04:29:52.152Z,-1.75
2019-02-23T04:32:18.770Z,-1.74
2019-02-23T04:34:45.457Z,-1.73
2019-02-23T04:37:12.053Z,-1.75
2019-02-23T04:39:38.685Z,-1.78
2019-02-23T04:42:05.255Z,-1.78
2019-02-23T04:44:31.834Z,-1.77
2019-02-23T04:46:58.416Z,-1.77
2019-02-23T04:49:25.951Z,-1.82
2019-02-23T04:51:52.906Z,-1.85
2019-02-23T04:54:19.502Z,-1.86
2019-02-23T04:56:46.134Z,-1.90
2019-02-23T04:59:12.752Z,-1.90
2019-02-23T05:01:39.349Z,-1.87
2019-02-23T05:04:05.950Z,-1.88
2019-02-23T05:06:32.584Z,-1.91
2019-02-23T05:08:59.268Z,-1.95
2019-02-23T05:11:25.881Z,-1.95
2019-02-23T05:13:52.573Z,-1.97
2019-02-23T05:16:19.261Z,-1.99
2019-02-23T05:18:45.844Z,-2.03
2019-02-23T05:21:12.849Z,-2.03
2019-02-23T05:23:39.540Z,-2.03
2019-02-23T05:26:06.151Z,-2.05
2019-02-23T05:28:32.860Z,-2.07
2019-02-23T05:30:59.447Z,-2.08
2019-02-23T05:33:26.058Z,-2.08
2019-02-23T05:35:52.662Z,-2.14
2019-02-23T05:38:19.271Z,-2.18
2019-02-23T05:40:45.999Z,-2.17
2019-02-23T05:43:12.713Z,-2.16
2019-02-23T05:45:39.406Z,-2.17
2019-02-23T05:48:06.026Z,-2.17
2019-02-23T05:50:32.888Z,-2.19
2019-02-23T05:52:59.497Z,-2.21
2019-02-23T05:55:26.188Z,-2.24
2019-02-23T05:57:52.804Z,-2.24
2019-02-23T06:00:19.415Z,-2.26
2019-02-23T06:02:46.125Z,-2.27
2019-02-23T06:05:12.747Z,-2.29
2019-02-23T06:07:39.362Z,-2.29
2019-02-23T06:10:06.877Z,-2.31
2019-02-23T06:12:33.567Z,-2.31
2019-02-23T06:15:00.408Z,-2.31
2019-02-23T06:17:27.075Z,-2.29
2019-02-23T06:19:53.773Z,-2.30
2019-02-23T06:22:20.425Z,-2.33
2019-02-23T06:24:47.033Z,-2.34
2019-02-23T06:27:13.759Z,-2.33
2019-02-23T06:29:40.455Z,-2.34
2019-02-23T06:32:07.158Z,-2.30
2019-02-23T06:34:33.891Z,-2.29
2019-02-23T06:37:00.590Z,-2.28
2019-02-23T06:39:27.301Z,-2.29
2019-02-23T06:41:53.903Z,-2.31
2019-02-23T06:44:20.516Z,-2.32
2019-02-23T06:46:47.223Z,-2.31
2019-02-23T06:49:13.881Z,-1.94
2019-02-23T06:51:40.585Z,-1.42
2019-02-23T06:54:07.250Z,-0.90
2019-02-23T06:56:33.946Z,-0.54
2019-02-23T06:59:00.659Z,-0.61
2019-02-23T07:01:27.252Z,-0.62
2019-02-23T07:03:53.878Z,-0.60
2019-02-23T07:06:20.612Z,-0.35
2019-02-23T07:08:47.356Z,0.06
2019-02-23T07:11:14.060Z,0.41
2019-02-23T07:13:40.752Z,0.65
2019-02-23T07:16:07.400Z,0.81
2019-02-23T07:18:34.014Z,0.33
2019-02-23T07:21:00.632Z,-0.14
2019-02-23T07:23:27.388Z,-0.52
2019-02-23T07:25:54.132Z,-0.88
2019-02-23T07:28:20.892Z,-1.19
2019-02-23T07:30:47.547Z,-1.35
2019-02-23T07:33:14.270Z,-1.49
2019-02-23T07:35:40.984Z,-1.58
2019-02-23T07:38:07.696Z,-1.63
2019-02-23T07:40:34.316Z,-1.67
2019-02-23T07:43:00.973Z,-1.70
2019-02-23T07:45:27.607Z,-1.72
2019-02-23T07:47:54.223Z,-1.72
2019-02-23T07:50:20.823Z,-1.73
2019-02-23T07:52:47.441Z,-1.74
2019-02-23T07:55:19.854Z,-1.73
2019-02-23T07:57:46.804Z,-1.73
2019-02-23T08:00:13.539Z,-1.71
2019-02-23T08:02:40.292Z,-1.68
2019-02-23T08:05:07.323Z,-1.67
2019-02-23T08:07:34.054Z,-1.65
2019-02-23T08:10:00.801Z,-1.61
2019-02-23T08:12:27.426Z,-1.56
2019-02-23T08:14:55.178Z,-1.55
2019-02-23T08:17:21.888Z,-1.49
2019-02-23T08:19:48.510Z,-1.44
2019-02-23T08:22:15.218Z,-1.40
2019-02-23T08:24:41.926Z,-1.32
2019-02-23T08:27:08.547Z,-1.26
2019-02-23T08:29:35.161Z,-1.19
2019-02-23T08:32:01.790Z,-1.12
2019-02-23T08:34:28.499Z,-0.85
2019-02-23T08:36:55.146Z,-0.73
2019-02-23T08:39:21.827Z,-0.57
2019-02-23T08:41:48.441Z,-0.61
2019-02-23T08:44:15.060Z,-0.66
2019-02-23T08:46:41.759Z,-0.69
2019-02-23T08:49:08.382Z,-0.66
2019-02-23T08:51:35.090Z,-0.64
2019-02-23T08:54:01.698Z,-0.62
2019-02-23T08:56:30.859Z,-0.61
2019-02-23T08:58:56.932Z,-0.60
2019-02-23T09:01:23.545Z,-0.61
2019-02-23T09:03:50.532Z,-0.52
2019-02-23T09:06:17.155Z,-0.48
2019-02-23T09:08:43.807Z,-0.46
2019-02-23T09:11:10.437Z,-0.43
2019-02-23T09:13:37.084Z,-0.37
2019-02-23T09:16:03.709Z,-0.32
2019-02-23T09:18:30.425Z,-0.28
2019-02-23T09:20:56.951Z,-0.18
2019-02-23T09:23:23.672Z,-0.14
2019-02-23T09:25:50.277Z,-0.09
2019-02-23T09:28:17.059Z,-0.08
2019-02-23T09:30:43.688Z,-0.05
2019-02-23T09:33:10.393Z,0.03
2019-02-23T09:35:37.029Z,0.14
2019-02-23T09:38:03.955Z,0.24
2019-02-23T09:40:30.568Z,0.34
2019-02-23T09:42:57.165Z,0.44
2019-02-23T09:45:23.794Z,0.50
2019-02-23T09:47:50.391Z,0.58
2019-02-23T09:50:17.021Z,0.66
2019-02-23T09:52:43.739Z,0.77
2019-02-23T09:55:10.975Z,0.81
2019-02-23T09:57:37.839Z,0.85
2019-02-23T10:00:04.907Z,0.85
2019-02-23T10:02:31.614Z,0.91
2019-02-23T10:04:58.316Z,1.06
2019-02-23T10:07:24.941Z,1.25
2019-02-23T10:09:51.566Z,1.43
2019-02-23T10:12:18.312Z,1.59
2019-02-23T10:14:45.041Z,1.79
2019-02-23T10:17:11.781Z,1.95
2019-02-23T10:19:38.392Z,2.15
2019-02-23T10:22:05.106Z,2.36
2019-02-23T10:24:31.717Z,2.63
2019-02-23T10:26:58.413Z,2.84
2019-02-23T10:29:25.016Z,2.94
2019-02-23T10:31:51.641Z,3.10
2019-02-23T10:34:18.365Z,3.27
2019-02-23T10:36:44.972Z,3.41
2019-02-23T10:39:11.725Z,3.42
2019-02-23T10:41:38.362Z,3.47
2019-02-23T10:44:05.115Z,3.51
2019-02-23T10:46:31.831Z,3.61
2019-02-23T10:48:58.509Z,3.73
2019-02-23T10:51:25.109Z,3.80
2019-02-23T10:53:51.723Z,3.93
2019-02-23T10:56:47.478Z,4.03
2019-02-23T10:59:14.170Z,4.16
2019-02-23T11:01:40.769Z,4.35
2019-02-23T11:04:07.395Z,4.47
2019-02-23T11:06:34.001Z,4.49
2019-02-23T11:09:00.682Z,4.32
2019-02-23T11:11:27.313Z,4.17
2019-02-23T11:13:53.919Z,4.04
2019-02-23T11:16:20.547Z,3.88
2019-02-23T11:18:47.253Z,3.71
2019-02-23T11:21:13.881Z,3.69
2019-02-23T11:23:44.187Z,3.83
2019-02-23T11:26:09.121Z,4.00
2019-02-23T11:28:35.748Z,4.14
2019-02-23T11:31:02.379Z,4.45
2019-02-23T11:33:28.989Z,4.76
2019-02-23T11:35:55.592Z,5.08
2019-02-23T11:38:22.195Z,5.19
2019-02-23T11:40:48.796Z,5.36
2019-02-23T11:43:15.431Z,5.48
2019-02-23T11:45:42.045Z,5.40
2019-02-23T11:48:08.663Z,5.48
2019-02-23T11:50:35.293Z,5.68
2019-02-23T11:53:01.992Z,5.95
2019-02-23T11:55:28.597Z,6.09
2019-02-23T11:57:55.187Z,6.18
2019-02-23T12:00:21.806Z,6.23
2019-02-23T12:02:52.480Z,6.23
2019-02-23T12:05:16.983Z,6.37
2019-02-23T12:07:43.690Z,6.49
2019-02-23T12:10:10.609Z,6.62
2019-02-23T12:12:37.204Z,6.62
2019-02-23T12:15:04.105Z,6.68
2019-02-23T12:17:30.704Z,6.79
2019-02-23T12:19:57.340Z,6.85
2019-02-23T12:22:23.935Z,6.81
2019-02-23T12:24:50.557Z,6.83
2019-02-23T12:27:17.154Z,6.87
2019-02-23T12:29:43.799Z,6.86
2019-02-23T12:32:10.396Z,6.99
2019-02-23T12:34:37.007Z,7.01
2019-02-23T12:37:03.677Z,6.87
2019-02-23T12:39:30.299Z,6.83
2019-02-23T12:41:57.020Z,6.86
2019-02-23T12:44:23.729Z,6.95
2019-02-23T12:46:50.319Z,7.14
2019-02-23T12:49:16.830Z,7.58
2019-02-23T12:51:43.521Z,7.96
2019-02-23T12:54:16.853Z,7.98
2019-02-23T12:56:45.011Z,8.17
2019-02-23T12:59:11.641Z,8.39
2019-02-23T13:01:38.271Z,8.31
2019-02-23T13:04:04.996Z,8.26
2019-02-23T13:06:31.713Z,8.19
2019-02-23T13:09:16.473Z,8.14
2019-02-23T13:11:48.306Z,8.10
2019-02-23T13:14:46.601Z,8.08
2019-02-23T13:17:44.913Z,8.09
2019-02-23T13:20:46.500Z,8.23
2019-02-23T13:23:32.621Z,8.30
2019-02-23T13:26:21.534Z,8.27
2019-02-23T13:29:02.399Z,8.63
2019-02-23T13:31:47.107Z,8.95
2019-02-23T13:34:42.138Z,9.01
2019-02-23T13:37:28.290Z,8.62
2019-02-23T13:40:17.290Z,7.92
2019-02-23T13:43:12.885Z,7.58
2019-02-23T13:45:59.060Z,7.45
2019-02-23T13:48:36.397Z,7.18
2019-02-23T13:51:25.806Z,7.05
2019-02-23T13:54:15.024Z,7.01
2019-02-23T13:56:44.772Z,6.95
2019-02-23T13:59:36.991Z,6.84
2019-02-23T14:02:16.201Z,6.82
2019-02-23T14:04:58.154Z,6.85
2019-02-23T14:07:47.041Z,6.83
2019-02-23T14:10:35.941Z,6.73
2019-02-23T14:13:28.270Z,6.78
2019-02-23T14:16:08.472Z,6.97
2019-02-23T14:18:44.780Z,7.02
2019-02-23T14:21:29.516Z,6.79
2019-02-23T14:24:14.342Z,6.63
2019-02-23T14:27:00.608Z,6.62
2019-02-23T14:29:46.871Z,6.67
2019-02-23T14:32:33.035Z,6.72
2019-02-23T14:35:28.602Z,6.89
2019-02-23T14:38:14.846Z,7.08
2019-02-23T14:41:10.142Z,7.30
2019-02-23T14:43:49.994Z,7.52
2019-02-23T14:46:35.205Z,7.90
2019-02-23T14:49:11.698Z,7.91
2019-02-23T14:51:47.721Z,7.81
2019-02-23T14:54:16.887Z,7.81
2019-02-23T14:57:21.525Z,7.70
2019-02-23T14:59:57.049Z,7.81
2019-02-23T15:02:58.347Z,8.22
2019-02-23T15:05:59.717Z,8.40
2019-02-23T15:08:49.081Z,8.42
2019-02-23T15:11:35.344Z,8.65
2019-02-23T15:14:21.694Z,8.73
2019-02-23T15:17:04.286Z,8.62
2019-02-23T15:19:59.726Z,8.31
2019-02-23T15:22:52.181Z,8.08
2019-02-23T15:25:34.065Z,7.93
2019-02-23T15:28:30.476Z,7.95
2019-02-23T15:30:57.697Z,7.76
2019-02-23T15:33:53.200Z,7.27
2019-02-23T15:36:45.589Z,7.32
2019-02-23T15:39:47.181Z,7.78
2019-02-23T15:42:36.545Z,7.78
2019-02-23T15:45:25.857Z,7.69
2019-02-23T15:48:14.925Z,7.25
2019-02-23T15:50:41.770Z,6.73
2019-02-23T15:53:08.629Z,6.39
2019-02-23T15:55:36.605Z,6.03
2019-02-23T15:58:03.376Z,5.83
2019-02-23T16:00:30.145Z,5.95
2019-02-23T16:02:56.810Z,6.00
2019-02-23T16:05:23.575Z,5.70
2019-02-23T16:07:50.329Z,5.48
2019-02-23T16:10:17.917Z,5.20
2019-02-23T16:12:47.593Z,4.82
2019-02-23T16:15:14.317Z,4.35
2019-02-23T16:17:41.009Z,3.84
2019-02-23T16:20:07.766Z,3.48
2019-02-23T16:22:34.524Z,3.14
2019-02-23T16:25:01.299Z,2.88
2019-02-23T16:27:28.062Z,2.67
2019-02-23T16:29:54.836Z,2.49
2019-02-23T16:32:21.619Z,2.33
2019-02-23T16:34:48.388Z,2.22
2019-02-23T16:37:15.140Z,2.16
2019-02-23T16:39:44.875Z,2.08
2019-02-23T16:42:11.676Z,1.98
2019-02-23T16:44:38.467Z,1.89
2019-02-23T16:47:05.250Z,1.80
2019-02-23T16:49:32.001Z,1.71
2019-02-23T16:51:58.823Z,1.60
2019-02-23T16:54:26.567Z,1.55
2019-02-23T16:56:53.352Z,1.46
2019-02-23T16:59:21.388Z,1.38
2019-02-23T17:01:48.172Z,1.31
2019-02-23T17:04:14.920Z,1.27
2019-02-23T17:06:42.072Z,1.23
2019-02-23T17:09:08.797Z,1.16
2019-02-23T17:11:35.471Z,1.11
2019-02-23T17:14:02.227Z,1.06
2019-02-23T17:16:28.897Z,1.04
2019-02-23T17:18:55.698Z,1.01
2019-02-23T17:21:22.440Z,0.96
2019-02-23T17:23:49.174Z,0.88
2019-02-23T17:26:15.944Z,0.82
2019-02-23T17:28:42.682Z,0.77
2019-02-23T17:31:09.446Z,0.71
2019-02-23T17:33:36.218Z,0.68
2019-02-23T17:36:02.941Z,0.65
2019-02-23T17:38:29.675Z,0.59
2019-02-23T17:40:56.423Z,0.53
2019-02-23T17:43:23.249Z,0.71
2019-02-23T17:45:49.936Z,1.13
2019-02-23T17:48:16.677Z,1.59
2019-02-23T17:50:43.439Z,2.00
2019-02-23T17:53:10.193Z,2.27
2019-02-23T17:55:36.941Z,2.47
2019-02-23T17:58:03.930Z,2.54
2019-02-23T18:00:30.693Z,2.78
2019-02-23T18:02:58.403Z,2.88
2019-02-23T18:05:25.534Z,2.85
2019-02-23T18:07:52.534Z,2.67
2019-02-23T18:10:19.297Z,2.44
2019-02-23T18:12:46.060Z,2.02
2019-02-23T18:15:12.841Z,1.61
2019-02-23T18:17:40.493Z,1.27
2019-02-23T18:20:07.934Z,0.98
2019-02-23T18:22:34.666Z,0.77
2019-02-23T18:25:01.326Z,0.60
2019-02-23T18:27:28.091Z,0.49
2019-02-23T18:29:54.862Z,0.38
2019-02-23T18:32:21.623Z,0.34
2019-02-23T18:34:48.393Z,0.28
2019-02-23T18:37:15.226Z,0.20
2019-02-23T18:39:42.007Z,0.12
2019-02-23T18:42:08.758Z,0.05
2019-02-23T18:44:35.546Z,0.02
2019-02-23T18:47:02.297Z,-0.02
2019-02-23T18:49:28.984Z,-0.05
2019-02-23T18:51:56.146Z,-0.11
2019-02-23T18:54:22.873Z,-0.21
2019-02-23T18:56:49.701Z,-0.29
2019-02-23T18:59:16.784Z,-0.37
2019-02-23T19:01:43.471Z,-0.46
2019-02-23T19:04:10.213Z,-0.53
2019-02-23T19:06:37.003Z,-0.59
2019-02-23T19:09:04.437Z,-0.65
2019-02-23T19:11:31.244Z,-0.67
2019-02-23T19:13:57.981Z,-0.73
2019-02-23T19:16:24.679Z,-0.84
2019-02-23T19:18:53.401Z,-0.96
2019-02-23T19:21:20.167Z,-0.99
2019-02-23T19:23:46.836Z,-1.06
2019-02-23T19:26:13.971Z,-1.10
2019-02-23T19:28:43.282Z,-1.11
2019-02-23T19:31:09.373Z,-1.12
2019-02-23T19:33:37.985Z,-1.13
2019-02-23T19:36:06.979Z,-1.10
2019-02-23T19:38:34.167Z,-1.07
2019-02-23T19:41:01.006Z,-1.08
2019-02-23T19:43:29.410Z,-1.08
2019-02-23T19:45:56.202Z,-1.09
2019-02-23T19:48:23.063Z,-1.09
2019-02-23T19:50:52.868Z,-0.92
2019-02-23T19:53:19.653Z,-0.68
2019-02-23T19:55:46.436Z,-0.70
2019-02-23T19:58:13.599Z,-0.78
2019-02-23T20:00:40.449Z,-0.81
2019-02-23T20:03:07.222Z,-0.83
2019-02-23T20:05:34.030Z,-0.86
2019-02-23T20:08:00.811Z,-0.92
2019-02-23T20:10:27.693Z,-0.97
2019-02-23T20:12:54.536Z,-0.99
2019-02-23T20:15:21.360Z,-1.05
2019-02-23T20:17:48.150Z,-1.12
2019-02-23T20:20:15.276Z,-1.18
2019-02-23T20:22:42.391Z,-1.24
2019-02-23T20:25:09.194Z,-1.29
2019-02-23T20:27:37.818Z,-1.30
2019-02-23T20:30:04.842Z,-1.34
2019-02-23T20:32:31.685Z,-1.40
2019-02-23T20:34:58.871Z,-1.45
2019-02-23T20:37:25.925Z,-1.49
2019-02-23T20:39:52.780Z,-1.56
2019-02-23T20:42:19.615Z,-1.60
2019-02-23T20:44:46.399Z,-1.59
2019-02-23T20:47:13.212Z,-1.61
2019-02-23T20:49:40.010Z,-1.62
2019-02-23T20:52:07.437Z,-1.61
2019-02-23T20:54:34.313Z,-1.62
2019-02-23T20:57:05.278Z,-1.64
2019-02-23T20:59:29.670Z,-1.69
2019-02-23T21:01:56.464Z,-1.72
2019-02-23T21:04:23.514Z,-1.73
2019-02-23T21:06:52.091Z,-1.72
2019-02-23T21:09:18.876Z,-1.74
2019-02-23T21:11:45.647Z,-1.78
2019-02-23T21:14:12.450Z,-1.82
2019-02-23T21:16:39.163Z,-1.84
2019-02-23T21:19:06.252Z,-1.84
2019-02-23T21:21:33.049Z,-1.86
2019-02-23T21:23:59.850Z,-1.93
2019-02-23T21:26:28.443Z,-1.98
2019-02-23T21:28:55.215Z,-2.02
2019-02-23T21:31:23.366Z,-1.99
2019-02-23T21:33:50.356Z,-1.99
2019-02-23T21:36:17.113Z,-2.03
2019-02-23T21:38:43.891Z,-2.10
2019-02-23T21:41:10.669Z,-2.13
2019-02-23T21:43:37.391Z,-2.13
2019-02-23T21:46:05.049Z,-2.13
2019-02-23T21:48:31.841Z,-2.11
2019-02-23T21:50:58.576Z,-2.09
2019-02-23T21:53:25.349Z,-2.08
2019-02-23T21:55:52.418Z,-2.10
2019-02-23T21:58:19.091Z,-2.11
2019-02-23T22:00:45.841Z,-2.14
2019-02-23T22:03:12.591Z,-2.15
2019-02-23T22:05:39.374Z,-2.12
2019-02-23T22:08:06.059Z,-2.07
2019-02-23T22:10:32.761Z,-2.06
2019-02-23T22:12:59.494Z,-2.08
2019-02-23T22:15:26.242Z,-2.08
2019-02-23T22:17:52.983Z,-2.06
2019-02-23T22:20:19.943Z,-2.05
2019-02-23T22:22:46.688Z,-2.06
2019-02-23T22:25:13.423Z,-2.06
2019-02-23T22:27:40.173Z,-2.07
2019-02-23T22:30:06.906Z,-2.07
2019-02-23T22:32:33.646Z,-2.13
2019-02-23T22:35:00.633Z,-2.18
2019-02-23T22:37:27.463Z,-2.24
2019-02-23T22:39:54.171Z,-2.25
2019-02-23T22:42:20.805Z,-2.27
2019-02-23T22:44:47.578Z,-2.26
2019-02-23T22:47:14.294Z,-2.26
2019-02-23T22:49:40.908Z,-2.24
2019-02-23T22:52:07.539Z,-2.24
2019-02-23T22:54:34.173Z,-2.22
2019-02-23T22:57:00.912Z,-2.19
2019-02-23T22:59:27.561Z,-2.15
2019-02-23T23:01:54.265Z,-2.10
2019-02-23T23:04:20.947Z,-2.06
2019-02-23T23:06:47.591Z,-2.05
2019-02-23T23:09:17.616Z,-2.03
2019-02-23T23:11:44.334Z,-2.02
2019-02-23T23:14:11.912Z,-2.03
2019-02-23T23:16:38.533Z,-2.11
2019-02-23T23:19:05.216Z,-2.21
2019-02-23T23:21:31.812Z,-2.30
2019-02-23T23:23:58.470Z,-2.37
2019-02-23T23:26:25.088Z,-2.44
2019-02-23T23:28:51.696Z,-2.51
2019-02-23T23:31:18.298Z,-2.58
2019-02-23T23:33:45.012Z,-2.65
2019-02-23T23:36:11.619Z,-2.70
2019-02-23T23:38:38.310Z,-2.77
2019-02-23T23:41:04.924Z,-2.77
2019-02-23T23:43:31.549Z,-2.78
2019-02-23T23:45:58.247Z,-2.77
2019-02-23T23:48:24.857Z,-2.78
2019-02-23T23:50:51.463Z,-2.78
2019-02-23T23:53:18.055Z,-2.82
2019-02-23T23:55:44.676Z,-2.82
2019-02-23T23:58:11.311Z,-2.81
